sensor_id;sensor_type;location;lat;lon;timestamp;temperature;humidity
31733;DHT22;18312;51.486;7.144;2024-02-26T00:01:18;6.40;99.90
31733;DHT22;18312;51.486;7.144;2024-02-26T00:03:45;6.40;99.90
31733;DHT22;18312;51.486;7.144;2024-02-26T00:06:13;6.40;99.90
31733;DHT22;18312;51.486;7.144;2024-02-26T00:08:39;6.30;99.90
31733;DHT22;18312;51.486;7.144;2024-02-26T00:11:08;6.40;99.90
31733;DHT22;18312;51.486;7.144;2024-02-26T00:13:35;6.30;99.90
31733;DHT22;18312;51.486;7.144;2024-02-26T00:16:02;6.40;99.90
31733;DHT22;18312;51.486;7.144;2024-02-26T00:18:29;6.40;99.90
31733;DHT22;18312;51.486;7.144;2024-02-26T00:20:56;6.40;99.90
31733;DHT22;18312;51.486;7.144;2024-02-26T00:23:23;6.40;99.90
31733;DHT22;18312;51.486;7.144;2024-02-26T00:25:50;6.40;99.90
31733;DHT22;18312;51.486;7.144;2024-02-26T00:28:18;6.40;99.90
31733;DHT22;18312;51.486;7.144;2024-02-26T00:30:46;6.40;99.90
31733;DHT22;18312;51.486;7.144;2024-02-26T00:33:13;6.40;99.90
31733;DHT22;18312;51.486;7.144;2024-02-26T00:35:40;6.40;99.90
31733;DHT22;18312;51.486;7.144;2024-02-26T00:38:07;6.50;99.90
31733;DHT22;18312;51.486;7.144;2024-02-26T00:40:34;6.40;99.90
31733;DHT22;18312;51.486;7.144;2024-02-26T00:43:00;6.40;99.90
31733;DHT22;18312;51.486;7.144;2024-02-26T00:45:29;6.50;99.90
31733;DHT22;18312;51.486;7.144;2024-02-26T00:47:57;6.50;99.90
31733;DHT22;18312;51.486;7.144;2024-02-26T00:50:26;6.40;99.90
31733;DHT22;18312;51.486;7.144;2024-02-26T00:52:53;6.50;99.90
31733;DHT22;18312;51.486;7.144;2024-02-26T00:55:20;6.50;99.90
31733;DHT22;18312;51.486;7.144;2024-02-26T00:57:47;6.40;99.90
31733;DHT22;18312;51.486;7.144;2024-02-26T01:00:15;6.40;99.90
31733;DHT22;18312;51.486;7.144;2024-02-26T01:02:43;6.40;99.90
31733;DHT22;18312;51.486;7.144;2024-02-26T01:05:12;6.40;99.90
31733;DHT22;18312;51.486;7.144;2024-02-26T01:07:39;6.40;99.90
31733;DHT22;18312;51.486;7.144;2024-02-26T01:10:07;6.30;99.90
31733;DHT22;18312;51.486;7.144;2024-02-26T01:12:34;6.30;99.90
31733;DHT22;18312;51.486;7.144;2024-02-26T01:15:01;6.30;99.90
31733;DHT22;18312;51.486;7.144;2024-02-26T01:17:28;6.30;99.90
31733;DHT22;18312;51.486;7.144;2024-02-26T01:19:56;6.30;99.90
31733;DHT22;18312;51.486;7.144;2024-02-26T01:22:24;6.20;99.90
31733;DHT22;18312;51.486;7.144;2024-02-26T01:24:51;6.20;99.90
31733;DHT22;18312;51.486;7.144;2024-02-26T01:27:18;6.20;99.90
31733;DHT22;18312;51.486;7.144;2024-02-26T01:29:45;6.20;99.90
31733;DHT22;18312;51.486;7.144;2024-02-26T01:32:12;6.20;99.90
31733;DHT22;18312;51.486;7.144;2024-02-26T01:34:39;6.20;99.90
31733;DHT22;18312;51.486;7.144;2024-02-26T01:37:08;6.20;99.90
31733;DHT22;18312;51.486;7.144;2024-02-26T01:39:35;6.20;99.90
31733;DHT22;18312;51.486;7.144;2024-02-26T01:42:02;6.20;99.90
31733;DHT22;18312;51.486;7.144;2024-02-26T01:44:29;6.10;99.90
31733;DHT22;18312;51.486;7.144;2024-02-26T01:46:56;6.10;99.90
31733;DHT22;18312;51.486;7.144;2024-02-26T01:49:22;6.10;99.90
31733;DHT22;18312;51.486;7.144;2024-02-26T01:51:49;6.10;99.90
31733;DHT22;18312;51.486;7.144;2024-02-26T01:54:18;6.10;99.90
31733;DHT22;18312;51.486;7.144;2024-02-26T01:56:45;6.10;99.90
31733;DHT22;18312;51.486;7.144;2024-02-26T01:59:12;6.00;99.90
31733;DHT22;18312;51.486;7.144;2024-02-26T02:01:41;6.00;99.90
31733;DHT22;18312;51.486;7.144;2024-02-26T02:04:08;6.10;99.90
31733;DHT22;18312;51.486;7.144;2024-02-26T02:06:36;6.00;99.90
31733;DHT22;18312;51.486;7.144;2024-02-26T02:09:03;5.90;99.90
31733;DHT22;18312;51.486;7.144;2024-02-26T02:11:33;6.00;99.90
31733;DHT22;18312;51.486;7.144;2024-02-26T02:14:00;6.00;99.90
31733;DHT22;18312;51.486;7.144;2024-02-26T02:16:27;6.00;99.90
31733;DHT22;18312;51.486;7.144;2024-02-26T02:18:54;6.00;99.90
31733;DHT22;18312;51.486;7.144;2024-02-26T02:21:22;6.00;99.90
31733;DHT22;18312;51.486;7.144;2024-02-26T02:23:49;6.00;99.90
31733;DHT22;18312;51.486;7.144;2024-02-26T02:26:16;6.00;99.90
31733;DHT22;18312;51.486;7.144;2024-02-26T02:28:46;6.10;99.90
31733;DHT22;18312;51.486;7.144;2024-02-26T02:31:14;6.00;99.90
31733;DHT22;18312;51.486;7.144;2024-02-26T02:33:41;6.10;99.90
31733;DHT22;18312;51.486;7.144;2024-02-26T02:36:08;6.10;99.90
31733;DHT22;18312;51.486;7.144;2024-02-26T02:38:38;6.10;99.90
31733;DHT22;18312;51.486;7.144;2024-02-26T02:41:05;6.10;99.90
31733;DHT22;18312;51.486;7.144;2024-02-26T02:43:32;6.10;99.90
31733;DHT22;18312;51.486;7.144;2024-02-26T02:45:58;6.10;99.90
31733;DHT22;18312;51.486;7.144;2024-02-26T02:48:25;6.10;99.90
31733;DHT22;18312;51.486;7.144;2024-02-26T02:50:52;6.20;99.90
31733;DHT22;18312;51.486;7.144;2024-02-26T02:53:19;6.20;99.90
31733;DHT22;18312;51.486;7.144;2024-02-26T02:55:47;6.20;99.90
31733;DHT22;18312;51.486;7.144;2024-02-26T02:58:14;6.20;99.90
31733;DHT22;18312;51.486;7.144;2024-02-26T03:00:41;6.20;99.90
31733;DHT22;18312;51.486;7.144;2024-02-26T03:03:08;6.20;99.90
31733;DHT22;18312;51.486;7.144;2024-02-26T03:05:35;6.20;99.90
31733;DHT22;18312;51.486;7.144;2024-02-26T03:08:02;6.20;99.90
31733;DHT22;18312;51.486;7.144;2024-02-26T03:10:29;6.20;99.90
31733;DHT22;18312;51.486;7.144;2024-02-26T03:12:57;6.20;99.90
31733;DHT22;18312;51.486;7.144;2024-02-26T03:15:24;6.20;99.90
31733;DHT22;18312;51.486;7.144;2024-02-26T03:17:51;6.20;99.90
31733;DHT22;18312;51.486;7.144;2024-02-26T03:20:18;6.20;99.90
31733;DHT22;18312;51.486;7.144;2024-02-26T03:22:45;6.20;99.90
31733;DHT22;18312;51.486;7.144;2024-02-26T03:25:15;6.20;99.90
31733;DHT22;18312;51.486;7.144;2024-02-26T03:27:44;6.20;99.90
31733;DHT22;18312;51.486;7.144;2024-02-26T03:30:13;6.20;99.90
31733;DHT22;18312;51.486;7.144;2024-02-26T03:32:40;6.20;99.90
31733;DHT22;18312;51.486;7.144;2024-02-26T03:35:07;6.10;99.90
31733;DHT22;18312;51.486;7.144;2024-02-26T03:37:34;6.10;99.90
31733;DHT22;18312;51.486;7.144;2024-02-26T03:40:01;6.10;99.90
31733;DHT22;18312;51.486;7.144;2024-02-26T03:42:28;6.00;99.90
31733;DHT22;18312;51.486;7.144;2024-02-26T03:44:55;6.00;99.90
31733;DHT22;18312;51.486;7.144;2024-02-26T03:47:25;5.90;99.90
31733;DHT22;18312;51.486;7.144;2024-02-26T03:49:52;5.70;99.90
31733;DHT22;18312;51.486;7.144;2024-02-26T03:52:22;5.60;99.90
31733;DHT22;18312;51.486;7.144;2024-02-26T03:54:51;5.50;99.90
31733;DHT22;18312;51.486;7.144;2024-02-26T03:57:26;5.50;99.90
31733;DHT22;18312;51.486;7.144;2024-02-26T03:59:53;5.40;99.90
31733;DHT22;18312;51.486;7.144;2024-02-26T04:02:21;5.40;99.90
31733;DHT22;18312;51.486;7.144;2024-02-26T04:04:50;5.30;99.90
31733;DHT22;18312;51.486;7.144;2024-02-26T04:07:17;5.30;99.90
31733;DHT22;18312;51.486;7.144;2024-02-26T04:09:44;5.30;99.90
31733;DHT22;18312;51.486;7.144;2024-02-26T04:12:11;5.20;99.90
31733;DHT22;18312;51.486;7.144;2024-02-26T04:14:39;5.20;99.90
31733;DHT22;18312;51.486;7.144;2024-02-26T04:17:06;5.20;99.90
31733;DHT22;18312;51.486;7.144;2024-02-26T04:19:33;5.10;99.90
31733;DHT22;18312;51.486;7.144;2024-02-26T04:22:01;5.10;99.90
31733;DHT22;18312;51.486;7.144;2024-02-26T04:24:29;5.10;99.90
31733;DHT22;18312;51.486;7.144;2024-02-26T04:26:56;5.10;99.90
31733;DHT22;18312;51.486;7.144;2024-02-26T04:29:26;5.10;99.90
31733;DHT22;18312;51.486;7.144;2024-02-26T04:31:56;5.10;99.90
31733;DHT22;18312;51.486;7.144;2024-02-26T04:34:26;5.10;99.90
31733;DHT22;18312;51.486;7.144;2024-02-26T04:36:53;5.10;99.90
31733;DHT22;18312;51.486;7.144;2024-02-26T04:39:29;5.00;99.90
31733;DHT22;18312;51.486;7.144;2024-02-26T04:41:56;5.00;99.90
31733;DHT22;18312;51.486;7.144;2024-02-26T04:44:28;5.00;99.90
31733;DHT22;18312;51.486;7.144;2024-02-26T04:46:56;5.00;99.90
31733;DHT22;18312;51.486;7.144;2024-02-26T04:49:24;5.00;99.90
31733;DHT22;18312;51.486;7.144;2024-02-26T04:51:54;5.00;99.90
31733;DHT22;18312;51.486;7.144;2024-02-26T04:54:22;4.90;99.90
31733;DHT22;18312;51.486;7.144;2024-02-26T04:56:53;4.90;99.90
31733;DHT22;18312;51.486;7.144;2024-02-26T04:59:26;4.90;99.90
31733;DHT22;18312;51.486;7.144;2024-02-26T05:01:53;4.90;99.90
31733;DHT22;18312;51.486;7.144;2024-02-26T05:04:22;4.90;99.90
31733;DHT22;18312;51.486;7.144;2024-02-26T05:06:50;4.80;99.90
31733;DHT22;18312;51.486;7.144;2024-02-26T05:09:17;4.80;99.90
31733;DHT22;18312;51.486;7.144;2024-02-26T05:11:47;4.80;99.90
31733;DHT22;18312;51.486;7.144;2024-02-26T05:14:19;4.80;99.90
31733;DHT22;18312;51.486;7.144;2024-02-26T05:16:50;4.80;99.90
31733;DHT22;18312;51.486;7.144;2024-02-26T05:19:17;4.80;99.90
31733;DHT22;18312;51.486;7.144;2024-02-26T05:21:46;4.80;99.90
31733;DHT22;18312;51.486;7.144;2024-02-26T05:24:23;4.80;99.90
31733;DHT22;18312;51.486;7.144;2024-02-26T05:26:50;4.80;99.90
31733;DHT22;18312;51.486;7.144;2024-02-26T05:29:20;4.80;99.90
31733;DHT22;18312;51.486;7.144;2024-02-26T05:31:47;4.80;99.90
31733;DHT22;18312;51.486;7.144;2024-02-26T05:34:25;4.80;99.90
31733;DHT22;18312;51.486;7.144;2024-02-26T05:36:59;4.80;99.90
31733;DHT22;18312;51.486;7.144;2024-02-26T05:39:40;4.80;99.90
31733;DHT22;18312;51.486;7.144;2024-02-26T05:42:17;4.80;99.90
31733;DHT22;18312;51.486;7.144;2024-02-26T05:45:31;4.70;99.90
31733;DHT22;18312;51.486;7.144;2024-02-26T05:48:03;4.70;99.90
31733;DHT22;18312;51.486;7.144;2024-02-26T05:50:32;4.70;99.90
31733;DHT22;18312;51.486;7.144;2024-02-26T05:53:05;4.70;99.90
31733;DHT22;18312;51.486;7.144;2024-02-26T05:55:37;4.70;99.90
31733;DHT22;18312;51.486;7.144;2024-02-26T05:58:04;4.80;99.90
31733;DHT22;18312;51.486;7.144;2024-02-26T06:00:33;4.80;99.90
31733;DHT22;18312;51.486;7.144;2024-02-26T06:03:06;4.80;99.90
31733;DHT22;18312;51.486;7.144;2024-02-26T06:12:41;4.70;99.90
31733;DHT22;18312;51.486;7.144;2024-02-26T06:15:29;4.80;99.90
31733;DHT22;18312;51.486;7.144;2024-02-26T06:18:43;4.80;99.90
31733;DHT22;18312;51.486;7.144;2024-02-26T06:24:46;4.90;99.90
31733;DHT22;18312;51.486;7.144;2024-02-26T06:27:22;4.90;99.90
31733;DHT22;18312;51.486;7.144;2024-02-26T06:29:55;4.90;99.90
31733;DHT22;18312;51.486;7.144;2024-02-26T06:32:47;4.90;99.90
31733;DHT22;18312;51.486;7.144;2024-02-26T06:35:34;4.90;99.90
31733;DHT22;18312;51.486;7.144;2024-02-26T06:38:46;4.90;99.90
31733;DHT22;18312;51.486;7.144;2024-02-26T06:44:59;4.90;99.90
31733;DHT22;18312;51.486;7.144;2024-02-26T06:47:26;4.80;99.90
31733;DHT22;18312;51.486;7.144;2024-02-26T06:49:53;4.90;99.90
31733;DHT22;18312;51.486;7.144;2024-02-26T06:52:26;4.80;99.90
31733;DHT22;18312;51.486;7.144;2024-02-26T06:54:54;4.80;99.90
31733;DHT22;18312;51.486;7.144;2024-02-26T06:57:21;4.90;99.90
31733;DHT22;18312;51.486;7.144;2024-02-26T06:59:48;4.80;99.90
31733;DHT22;18312;51.486;7.144;2024-02-26T07:02:14;4.90;99.90
31733;DHT22;18312;51.486;7.144;2024-02-26T07:04:42;4.90;99.90
31733;DHT22;18312;51.486;7.144;2024-02-26T07:07:10;4.90;99.90
31733;DHT22;18312;51.486;7.144;2024-02-26T07:09:42;4.90;99.90
31733;DHT22;18312;51.486;7.144;2024-02-26T07:12:09;4.90;99.90
31733;DHT22;18312;51.486;7.144;2024-02-26T07:14:36;4.90;99.90
31733;DHT22;18312;51.486;7.144;2024-02-26T07:17:04;4.90;99.90
31733;DHT22;18312;51.486;7.144;2024-02-26T07:19:31;5.00;99.90
31733;DHT22;18312;51.486;7.144;2024-02-26T07:21:59;5.00;99.90
31733;DHT22;18312;51.486;7.144;2024-02-26T07:24:29;5.00;99.90
31733;DHT22;18312;51.486;7.144;2024-02-26T07:26:57;5.00;99.90
31733;DHT22;18312;51.486;7.144;2024-02-26T07:29:25;5.00;99.90
31733;DHT22;18312;51.486;7.144;2024-02-26T07:31:52;5.00;99.90
31733;DHT22;18312;51.486;7.144;2024-02-26T07:34:19;5.10;99.90
31733;DHT22;18312;51.486;7.144;2024-02-26T07:36:56;5.10;99.90
31733;DHT22;18312;51.486;7.144;2024-02-26T07:39:23;5.20;99.90
31733;DHT22;18312;51.486;7.144;2024-02-26T07:41:50;5.10;99.90
31733;DHT22;18312;51.486;7.144;2024-02-26T07:44:20;5.20;99.90
31733;DHT22;18312;51.486;7.144;2024-02-26T07:46:47;5.20;99.90
31733;DHT22;18312;51.486;7.144;2024-02-26T07:49:15;5.20;99.90
31733;DHT22;18312;51.486;7.144;2024-02-26T07:51:43;5.20;99.90
31733;DHT22;18312;51.486;7.144;2024-02-26T07:54:11;5.20;99.90
31733;DHT22;18312;51.486;7.144;2024-02-26T07:56:38;5.10;99.90
31733;DHT22;18312;51.486;7.144;2024-02-26T07:59:08;5.10;99.90
31733;DHT22;18312;51.486;7.144;2024-02-26T08:01:41;5.10;99.90
31733;DHT22;18312;51.486;7.144;2024-02-26T08:04:09;5.10;99.90
31733;DHT22;18312;51.486;7.144;2024-02-26T08:06:37;5.10;99.90
31733;DHT22;18312;51.486;7.144;2024-02-26T08:09:04;5.20;99.90
31733;DHT22;18312;51.486;7.144;2024-02-26T08:11:32;5.10;99.90
31733;DHT22;18312;51.486;7.144;2024-02-26T08:13:59;5.20;99.90
31733;DHT22;18312;51.486;7.144;2024-02-26T08:16:27;5.20;99.90
31733;DHT22;18312;51.486;7.144;2024-02-26T08:18:58;5.20;99.90
31733;DHT22;18312;51.486;7.144;2024-02-26T08:21:27;5.20;99.90
31733;DHT22;18312;51.486;7.144;2024-02-26T08:23:54;5.10;99.90
31733;DHT22;18312;51.486;7.144;2024-02-26T08:26:21;5.20;99.90
31733;DHT22;18312;51.486;7.144;2024-02-26T08:28:50;5.20;99.90
31733;DHT22;18312;51.486;7.144;2024-02-26T08:31:17;5.20;99.90
31733;DHT22;18312;51.486;7.144;2024-02-26T08:33:44;5.20;99.90
31733;DHT22;18312;51.486;7.144;2024-02-26T08:36:13;5.30;99.90
31733;DHT22;18312;51.486;7.144;2024-02-26T08:38:40;5.30;99.90
31733;DHT22;18312;51.486;7.144;2024-02-26T08:41:07;5.40;99.90
31733;DHT22;18312;51.486;7.144;2024-02-26T08:43:37;5.40;99.90
31733;DHT22;18312;51.486;7.144;2024-02-26T08:46:10;5.40;99.90
31733;DHT22;18312;51.486;7.144;2024-02-26T08:48:39;5.40;99.90
31733;DHT22;18312;51.486;7.144;2024-02-26T08:51:14;5.40;99.90
31733;DHT22;18312;51.486;7.144;2024-02-26T08:53:41;5.50;99.90
31733;DHT22;18312;51.486;7.144;2024-02-26T08:56:09;5.50;99.90
31733;DHT22;18312;51.486;7.144;2024-02-26T08:58:45;5.50;99.90
31733;DHT22;18312;51.486;7.144;2024-02-26T09:01:15;5.50;99.90
31733;DHT22;18312;51.486;7.144;2024-02-26T09:03:43;5.50;99.90
31733;DHT22;18312;51.486;7.144;2024-02-26T09:06:11;5.50;99.90
31733;DHT22;18312;51.486;7.144;2024-02-26T09:08:48;5.60;99.90
31733;DHT22;18312;51.486;7.144;2024-02-26T09:11:16;5.60;99.90
31733;DHT22;18312;51.486;7.144;2024-02-26T09:13:47;5.70;99.90
31733;DHT22;18312;51.486;7.144;2024-02-26T09:16:17;5.70;99.90
31733;DHT22;18312;51.486;7.144;2024-02-26T09:19:01;5.80;99.90
31733;DHT22;18312;51.486;7.144;2024-02-26T09:21:50;5.80;99.90
31733;DHT22;18312;51.486;7.144;2024-02-26T09:27:16;5.80;99.90
31733;DHT22;18312;51.486;7.144;2024-02-26T09:29:46;5.70;99.90
31733;DHT22;18312;51.486;7.144;2024-02-26T09:32:19;5.70;99.90
31733;DHT22;18312;51.486;7.144;2024-02-26T09:34:50;5.80;99.90
31733;DHT22;18312;51.486;7.144;2024-02-26T09:37:27;5.70;99.90
31733;DHT22;18312;51.486;7.144;2024-02-26T09:39:56;5.70;99.90
31733;DHT22;18312;51.486;7.144;2024-02-26T09:42:32;5.80;99.90
31733;DHT22;18312;51.486;7.144;2024-02-26T09:45:00;5.80;99.90
31733;DHT22;18312;51.486;7.144;2024-02-26T09:47:38;5.80;99.90
31733;DHT22;18312;51.486;7.144;2024-02-26T09:50:07;5.80;99.90
31733;DHT22;18312;51.486;7.144;2024-02-26T09:52:38;5.80;99.90
31733;DHT22;18312;51.486;7.144;2024-02-26T09:55:08;5.80;99.90
31733;DHT22;18312;51.486;7.144;2024-02-26T09:57:58;5.80;99.90
31733;DHT22;18312;51.486;7.144;2024-02-26T10:00:28;5.90;99.90
31733;DHT22;18312;51.486;7.144;2024-02-26T10:03:00;5.90;99.90
31733;DHT22;18312;51.486;7.144;2024-02-26T10:05:29;5.90;99.90
31733;DHT22;18312;51.486;7.144;2024-02-26T10:07:58;6.00;99.90
31733;DHT22;18312;51.486;7.144;2024-02-26T10:10:29;5.90;99.90
31733;DHT22;18312;51.486;7.144;2024-02-26T10:12:58;5.90;99.90
31733;DHT22;18312;51.486;7.144;2024-02-26T10:15:25;5.90;99.90
31733;DHT22;18312;51.486;7.144;2024-02-26T10:17:53;6.00;99.90
31733;DHT22;18312;51.486;7.144;2024-02-26T10:20:21;6.00;99.90
31733;DHT22;18312;51.486;7.144;2024-02-26T10:22:52;6.10;99.90
31733;DHT22;18312;51.486;7.144;2024-02-26T10:25:27;6.10;99.90
31733;DHT22;18312;51.486;7.144;2024-02-26T10:28:03;6.10;99.90
31733;DHT22;18312;51.486;7.144;2024-02-26T10:30:33;6.10;99.90
31733;DHT22;18312;51.486;7.144;2024-02-26T10:33:03;6.20;99.90
31733;DHT22;18312;51.486;7.144;2024-02-26T10:35:32;6.20;99.90
31733;DHT22;18312;51.486;7.144;2024-02-26T10:38:04;6.20;99.90
31733;DHT22;18312;51.486;7.144;2024-02-26T10:40:31;6.20;99.90
31733;DHT22;18312;51.486;7.144;2024-02-26T10:43:03;6.20;99.90
31733;DHT22;18312;51.486;7.144;2024-02-26T10:45:34;6.30;99.90
31733;DHT22;18312;51.486;7.144;2024-02-26T10:48:09;6.40;99.90
31733;DHT22;18312;51.486;7.144;2024-02-26T10:50:38;6.50;99.90
31733;DHT22;18312;51.486;7.144;2024-02-26T10:53:10;6.50;99.90
31733;DHT22;18312;51.486;7.144;2024-02-26T10:55:42;6.60;99.90
31733;DHT22;18312;51.486;7.144;2024-02-26T10:58:14;6.60;99.90
31733;DHT22;18312;51.486;7.144;2024-02-26T11:00:43;6.60;99.90
31733;DHT22;18312;51.486;7.144;2024-02-26T11:03:18;6.60;99.90
31733;DHT22;18312;51.486;7.144;2024-02-26T11:05:50;6.70;99.90
31733;DHT22;18312;51.486;7.144;2024-02-26T11:08:19;6.80;99.90
31733;DHT22;18312;51.486;7.144;2024-02-26T11:10:53;6.90;99.90
31733;DHT22;18312;51.486;7.144;2024-02-26T11:13:25;6.80;99.90
31733;DHT22;18312;51.486;7.144;2024-02-26T11:16:02;6.90;99.90
31733;DHT22;18312;51.486;7.144;2024-02-26T11:18:31;6.90;99.90
31733;DHT22;18312;51.486;7.144;2024-02-26T11:21:01;6.90;99.90
31733;DHT22;18312;51.486;7.144;2024-02-26T11:23:28;6.90;99.90
31733;DHT22;18312;51.486;7.144;2024-02-26T11:25:58;7.00;99.90
31733;DHT22;18312;51.486;7.144;2024-02-26T11:28:33;7.00;99.90
31733;DHT22;18312;51.486;7.144;2024-02-26T11:31:03;7.10;99.90
31733;DHT22;18312;51.486;7.144;2024-02-26T11:33:33;7.10;99.90
31733;DHT22;18312;51.486;7.144;2024-02-26T11:36:02;7.10;99.90
31733;DHT22;18312;51.486;7.144;2024-02-26T11:38:36;7.20;99.90
31733;DHT22;18312;51.486;7.144;2024-02-26T11:41:07;7.20;99.90
31733;DHT22;18312;51.486;7.144;2024-02-26T11:43:53;7.30;99.90
31733;DHT22;18312;51.486;7.144;2024-02-26T11:46:27;7.40;99.90
31733;DHT22;18312;51.486;7.144;2024-02-26T11:49:00;7.60;99.90
31733;DHT22;18312;51.486;7.144;2024-02-26T11:51:36;7.70;99.90
31733;DHT22;18312;51.486;7.144;2024-02-26T11:54:12;7.80;99.90
31733;DHT22;18312;51.486;7.144;2024-02-26T11:56:59;7.90;99.90
31733;DHT22;18312;51.486;7.144;2024-02-26T11:59:44;7.90;99.90
31733;DHT22;18312;51.486;7.144;2024-02-26T12:02:49;7.80;99.90
31733;DHT22;18312;51.486;7.144;2024-02-26T12:05:24;7.70;99.90
31733;DHT22;18312;51.486;7.144;2024-02-26T12:07:55;7.60;99.90
31733;DHT22;18312;51.486;7.144;2024-02-26T12:10:40;7.60;99.90
31733;DHT22;18312;51.486;7.144;2024-02-26T12:13:14;7.50;99.90
31733;DHT22;18312;51.486;7.144;2024-02-26T12:15:59;7.50;99.90
31733;DHT22;18312;51.486;7.144;2024-02-26T12:18:31;7.50;99.90
31733;DHT22;18312;51.486;7.144;2024-02-26T12:21:10;7.50;99.90
31733;DHT22;18312;51.486;7.144;2024-02-26T12:23:39;7.50;99.90
31733;DHT22;18312;51.486;7.144;2024-02-26T12:26:09;7.50;99.90
31733;DHT22;18312;51.486;7.144;2024-02-26T12:28:38;7.60;99.90
31733;DHT22;18312;51.486;7.144;2024-02-26T12:31:10;7.70;99.90
31733;DHT22;18312;51.486;7.144;2024-02-26T12:33:43;7.70;99.90
31733;DHT22;18312;51.486;7.144;2024-02-26T12:36:10;7.80;99.90
31733;DHT22;18312;51.486;7.144;2024-02-26T12:38:41;7.80;99.90
31733;DHT22;18312;51.486;7.144;2024-02-26T12:41:09;7.90;99.90
31733;DHT22;18312;51.486;7.144;2024-02-26T12:43:39;8.10;99.90
31733;DHT22;18312;51.486;7.144;2024-02-26T12:46:08;8.00;99.90
31733;DHT22;18312;51.486;7.144;2024-02-26T12:48:36;7.80;99.90
31733;DHT22;18312;51.486;7.144;2024-02-26T12:51:04;7.70;99.90
31733;DHT22;18312;51.486;7.144;2024-02-26T12:53:32;7.60;99.90
31733;DHT22;18312;51.486;7.144;2024-02-26T12:55:59;7.60;99.90
31733;DHT22;18312;51.486;7.144;2024-02-26T12:58:31;7.60;99.90
31733;DHT22;18312;51.486;7.144;2024-02-26T13:00:58;7.70;99.90
31733;DHT22;18312;51.486;7.144;2024-02-26T13:03:27;7.60;99.90
31733;DHT22;18312;51.486;7.144;2024-02-26T13:05:55;7.70;99.90
31733;DHT22;18312;51.486;7.144;2024-02-26T13:08:22;7.80;99.90
31733;DHT22;18312;51.486;7.144;2024-02-26T13:10:50;7.70;99.90
31733;DHT22;18312;51.486;7.144;2024-02-26T13:13:22;7.80;99.90
31733;DHT22;18312;51.486;7.144;2024-02-26T13:15:49;7.70;99.90
31733;DHT22;18312;51.486;7.144;2024-02-26T13:18:16;7.60;99.90
31733;DHT22;18312;51.486;7.144;2024-02-26T13:20:44;7.50;99.90
31733;DHT22;18312;51.486;7.144;2024-02-26T13:23:12;7.50;99.90
31733;DHT22;18312;51.486;7.144;2024-02-26T13:25:49;7.60;99.90
31733;DHT22;18312;51.486;7.144;2024-02-26T13:28:23;7.60;99.90
31733;DHT22;18312;51.486;7.144;2024-02-26T13:30:53;7.70;99.90
31733;DHT22;18312;51.486;7.144;2024-02-26T13:33:22;7.70;99.90
31733;DHT22;18312;51.486;7.144;2024-02-26T13:35:51;7.80;99.90
31733;DHT22;18312;51.486;7.144;2024-02-26T13:38:18;7.70;99.90
31733;DHT22;18312;51.486;7.144;2024-02-26T13:40:45;7.60;99.90
31733;DHT22;18312;51.486;7.144;2024-02-26T13:43:12;7.70;99.90
31733;DHT22;18312;51.486;7.144;2024-02-26T13:45:42;7.70;99.90
31733;DHT22;18312;51.486;7.144;2024-02-26T13:48:10;7.60;99.90
31733;DHT22;18312;51.486;7.144;2024-02-26T13:50:38;7.70;99.90
31733;DHT22;18312;51.486;7.144;2024-02-26T13:53:06;7.70;99.90
31733;DHT22;18312;51.486;7.144;2024-02-26T13:55:33;7.70;99.90
31733;DHT22;18312;51.486;7.144;2024-02-26T13:58:01;7.60;99.90
31733;DHT22;18312;51.486;7.144;2024-02-26T14:00:29;7.60;99.90
31733;DHT22;18312;51.486;7.144;2024-02-26T14:02:58;7.60;99.90
31733;DHT22;18312;51.486;7.144;2024-02-26T14:05:25;7.60;99.90
31733;DHT22;18312;51.486;7.144;2024-02-26T14:07:52;7.60;99.90
31733;DHT22;18312;51.486;7.144;2024-02-26T14:10:21;7.60;99.90
31733;DHT22;18312;51.486;7.144;2024-02-26T14:12:48;7.60;99.90
31733;DHT22;18312;51.486;7.144;2024-02-26T14:15:15;7.70;99.90
31733;DHT22;18312;51.486;7.144;2024-02-26T14:17:42;7.80;99.90
31733;DHT22;18312;51.486;7.144;2024-02-26T14:20:13;7.90;99.90
31733;DHT22;18312;51.486;7.144;2024-02-26T14:22:42;7.90;99.90
31733;DHT22;18312;51.486;7.144;2024-02-26T14:25:09;7.90;99.90
31733;DHT22;18312;51.486;7.144;2024-02-26T14:27:38;7.80;99.90
31733;DHT22;18312;51.486;7.144;2024-02-26T14:30:06;7.90;99.90
31733;DHT22;18312;51.486;7.144;2024-02-26T14:32:33;7.80;99.90
31733;DHT22;18312;51.486;7.144;2024-02-26T14:35:02;7.90;99.90
31733;DHT22;18312;51.486;7.144;2024-02-26T14:37:30;7.90;99.90
31733;DHT22;18312;51.486;7.144;2024-02-26T14:39:57;7.90;99.90
31733;DHT22;18312;51.486;7.144;2024-02-26T14:42:24;7.90;99.90
31733;DHT22;18312;51.486;7.144;2024-02-26T14:44:54;7.80;99.90
31733;DHT22;18312;51.486;7.144;2024-02-26T14:47:21;7.90;99.90
31733;DHT22;18312;51.486;7.144;2024-02-26T14:49:48;7.90;99.90
31733;DHT22;18312;51.486;7.144;2024-02-26T14:52:23;7.90;99.90
31733;DHT22;18312;51.486;7.144;2024-02-26T14:55:08;7.90;99.90
31733;DHT22;18312;51.486;7.144;2024-02-26T15:00:15;8.00;99.90
31733;DHT22;18312;51.486;7.144;2024-02-26T15:02:48;7.90;99.90
31733;DHT22;18312;51.486;7.144;2024-02-26T15:05:17;7.90;99.90
31733;DHT22;18312;51.486;7.144;2024-02-26T15:07:45;7.90;99.90
31733;DHT22;18312;51.486;7.144;2024-02-26T15:10:15;7.90;99.90
31733;DHT22;18312;51.486;7.144;2024-02-26T15:13:00;7.90;99.90
31733;DHT22;18312;51.486;7.144;2024-02-26T15:15:37;7.90;99.90
31733;DHT22;18312;51.486;7.144;2024-02-26T15:18:14;7.90;99.90
31733;DHT22;18312;51.486;7.144;2024-02-26T15:20:49;7.80;99.90
31733;DHT22;18312;51.486;7.144;2024-02-26T15:23:17;7.80;99.90
31733;DHT22;18312;51.486;7.144;2024-02-26T15:25:58;7.80;99.90
31733;DHT22;18312;51.486;7.144;2024-02-26T15:28:29;7.90;99.90
31733;DHT22;18312;51.486;7.144;2024-02-26T15:31:08;7.80;99.90
31733;DHT22;18312;51.486;7.144;2024-02-26T15:33:37;7.90;99.90
31733;DHT22;18312;51.486;7.144;2024-02-26T15:36:10;7.90;99.90
31733;DHT22;18312;51.486;7.144;2024-02-26T15:38:57;7.90;99.90
31733;DHT22;18312;51.486;7.144;2024-02-26T15:41:37;7.80;99.90
31733;DHT22;18312;51.486;7.144;2024-02-26T15:44:05;7.80;99.90
31733;DHT22;18312;51.486;7.144;2024-02-26T15:46:44;7.80;99.90
31733;DHT22;18312;51.486;7.144;2024-02-26T15:49:12;7.80;99.90
31733;DHT22;18312;51.486;7.144;2024-02-26T15:52:01;7.70;99.90
31733;DHT22;18312;51.486;7.144;2024-02-26T15:54:47;7.70;99.90
31733;DHT22;18312;51.486;7.144;2024-02-26T15:57:23;7.70;99.90
31733;DHT22;18312;51.486;7.144;2024-02-26T16:00:10;7.70;99.90
31733;DHT22;18312;51.486;7.144;2024-02-26T16:02:39;7.70;99.90
31733;DHT22;18312;51.486;7.144;2024-02-26T16:05:14;7.70;99.90
31733;DHT22;18312;51.486;7.144;2024-02-26T16:07:45;7.70;99.90
31733;DHT22;18312;51.486;7.144;2024-02-26T16:10:24;7.70;99.90
31733;DHT22;18312;51.486;7.144;2024-02-26T16:13:03;7.60;99.90
31733;DHT22;18312;51.486;7.144;2024-02-26T16:15:31;7.60;99.90
31733;DHT22;18312;51.486;7.144;2024-02-26T16:18:02;7.60;99.90
31733;DHT22;18312;51.486;7.144;2024-02-26T16:20:30;7.60;99.90
31733;DHT22;18312;51.486;7.144;2024-02-26T16:23:01;7.60;99.90
31733;DHT22;18312;51.486;7.144;2024-02-26T16:25:31;7.60;99.90